Churchville, Virginia
Current Conditions -  °F | °C
As of 3:15 AM on Monday 24 Nov 2014 (Local Time) from KSHD Reporting Station
Broken Clouds Broken Clouds  
Wind Chill: 52°   Ceiling: 4400
Heat Index: 52°   Visibility: 10mi
Dew Point: 50°   Wind: 3mph
Humidity: 92%   Direction: 240°WSW
Pressure: 29.66"   Gusts: NA
Location:  38.23°N, 79.16°W
Report Text: KSHD 240815Z AUTO 24003KT 10SM SCT035 BKN044 11/10 A2966 RMK AO2 T01130100
Loading
Personal Weather Stations






























Interactive Weather Map New forecast layout! Learn more

10-Day Weather Forecast

Advertisements
Track Severe Weather on mobile